createdAt,value
2023-04-09T00:01:55.561Z,72
2023-04-09T00:04:26.295Z,71
2023-04-09T00:06:57.307Z,71
2023-04-09T00:09:26.726Z,71
2023-04-09T00:11:56.745Z,71
2023-04-09T00:14:27.631Z,71
2023-04-09T00:16:58.380Z,71
2023-04-09T00:19:28.988Z,71
2023-04-09T00:22:00.001Z,71
2023-04-09T00:24:33.397Z,71
2023-04-09T00:27:04.090Z,71
2023-04-09T00:29:34.884Z,71
2023-04-09T00:32:06.790Z,72
2023-04-09T00:34:37.587Z,71
2023-04-09T00:37:08.579Z,72
2023-04-09T00:39:37.581Z,72
2023-04-09T00:42:08.220Z,71
2023-04-09T00:44:39.812Z,71
2023-04-09T00:47:10.714Z,70
2023-04-09T00:49:41.241Z,71
2023-04-09T00:52:11.444Z,70
2023-04-09T00:54:42.257Z,71
2023-04-09T00:57:13.163Z,71
2023-04-09T00:59:44.129Z,71
2023-04-09T01:02:14.951Z,71
2023-04-09T01:04:45.901Z,71
2023-04-09T01:07:16.666Z,71
2023-04-09T01:09:48.873Z,71
2023-04-09T01:12:20.295Z,72
2023-04-09T01:14:58.998Z,71
2023-04-09T01:17:30.779Z,71
2023-04-09T01:20:01.693Z,71
2023-04-09T01:22:32.793Z,71
2023-04-09T01:25:03.774Z,71
2023-04-09T01:27:34.869Z,71
2023-04-09T01:30:05.774Z,71
2023-04-09T01:32:37.601Z,71
2023-04-09T01:35:08.716Z,72
2023-04-09T01:37:40.397Z,72
2023-04-09T01:40:11.200Z,73
2023-04-09T01:42:41.707Z,73
2023-04-09T01:45:15.672Z,73
2023-04-09T01:47:51.556Z,73
2023-04-09T01:50:22.761Z,73
2023-04-09T01:52:53.588Z,73
2023-04-09T01:55:27.531Z,73
2023-04-09T01:58:01.853Z,73
2023-04-09T02:00:44.681Z,73
2023-04-09T02:03:18.828Z,72
2023-04-09T02:05:50.010Z,72
2023-04-09T02:08:20.567Z,72
2023-04-09T02:10:53.867Z,71
2023-04-09T02:13:24.763Z,71
2023-04-09T02:15:57.626Z,72
2023-04-09T02:18:30.048Z,72
2023-04-09T02:21:01.039Z,73
2023-04-09T02:23:31.658Z,72
2023-04-09T02:26:02.696Z,71
2023-04-09T02:28:33.528Z,71
2023-04-09T02:31:04.380Z,72
2023-04-09T02:33:35.610Z,71
2023-04-09T02:36:06.720Z,71
2023-04-09T02:38:40.121Z,72
2023-04-09T02:41:11.056Z,72
2023-04-09T02:43:41.733Z,72
2023-04-09T02:46:12.719Z,72
2023-04-09T02:48:43.717Z,71
2023-04-09T02:51:14.841Z,71
2023-04-09T02:53:45.723Z,71
2023-04-09T02:56:16.500Z,71
2023-04-09T02:58:47.776Z,72
2023-04-09T03:01:18.282Z,72
2023-04-09T03:03:49.272Z,72
2023-04-09T03:06:20.113Z,74
2023-04-09T03:08:51.640Z,74
2023-04-09T03:11:22.224Z,74
2023-04-09T03:13:51.624Z,74
2023-04-09T03:16:22.179Z,73
2023-04-09T03:18:53.489Z,72
2023-04-09T03:21:24.288Z,72
2023-04-09T03:23:54.850Z,72
2023-04-09T03:26:29.820Z,72
2023-04-09T03:29:00.252Z,71
2023-04-09T03:31:31.009Z,71
2023-04-09T03:34:05.702Z,71
2023-04-09T03:36:36.301Z,71
2023-04-09T03:39:06.888Z,70
2023-04-09T03:41:40.455Z,70
2023-04-09T03:44:11.707Z,71
2023-04-09T03:46:44.682Z,70
2023-04-09T03:49:13.821Z,71
2023-04-09T03:51:43.934Z,71
2023-04-09T03:54:16.985Z,71
2023-04-09T03:56:47.952Z,71
2023-04-09T03:59:23.376Z,71
2023-04-09T04:01:53.843Z,71
2023-04-09T04:04:24.626Z,72
2023-04-09T04:06:56.435Z,72
2023-04-09T04:09:27.064Z,71
2023-04-09T04:11:57.347Z,71
2023-04-09T04:14:27.683Z,71
2023-04-09T04:16:58.246Z,71
2023-04-09T04:19:29.572Z,71
2023-04-09T04:22:00.643Z,71
2023-04-09T04:24:31.298Z,71
2023-04-09T04:27:02.189Z,71
2023-04-09T04:29:33.973Z,71
2023-04-09T04:32:05.187Z,71
2023-04-09T04:34:35.767Z,71
2023-04-09T04:37:06.348Z,71
2023-04-09T04:39:37.589Z,71
2023-04-09T04:42:08.040Z,71
2023-04-09T04:44:38.802Z,70
2023-04-09T04:47:10.038Z,70
2023-04-09T04:49:40.719Z,70
2023-04-09T04:52:13.611Z,70
2023-04-09T04:54:45.305Z,70
2023-04-09T04:57:16.628Z,70
2023-04-09T04:59:46.108Z,70
2023-04-09T05:02:20.293Z,70
2023-04-09T05:04:50.910Z,71
2023-04-09T05:07:26.673Z,71
2023-04-09T05:09:57.331Z,71
2023-04-09T05:12:29.314Z,70
2023-04-09T05:15:00.095Z,70
2023-04-09T05:17:30.938Z,70
2023-04-09T05:20:02.402Z,70
2023-04-09T05:22:33.009Z,69
2023-04-09T05:25:04.364Z,69
2023-04-09T05:27:35.434Z,69
2023-04-09T05:30:05.836Z,70
2023-04-09T05:32:36.487Z,70
2023-04-09T05:35:07.643Z,70
2023-04-09T05:37:37.984Z,69
2023-04-09T05:40:08.791Z,69
2023-04-09T05:42:38.937Z,69
2023-04-09T05:45:09.274Z,69
2023-04-09T05:47:41.018Z,69
2023-04-09T05:50:12.806Z,69
2023-04-09T05:52:43.705Z,69
2023-04-09T05:55:14.702Z,69
2023-04-09T05:57:48.428Z,69
2023-04-09T06:00:18.733Z,69
2023-04-09T06:02:49.228Z,69
2023-04-09T06:05:19.412Z,69
2023-04-09T06:07:53.079Z,68
2023-04-09T06:10:25.370Z,68
2023-04-09T06:12:58.410Z,69
2023-04-09T06:15:29.708Z,68
2023-04-09T06:18:01.487Z,68
2023-04-09T06:20:32.199Z,68
2023-04-09T06:23:03.858Z,67
2023-04-09T06:25:33.284Z,67
2023-04-09T06:28:05.463Z,67
2023-04-09T06:30:37.471Z,67
2023-04-09T06:33:14.405Z,67
2023-04-09T06:35:45.599Z,67
2023-04-09T06:38:16.359Z,67
2023-04-09T06:40:48.019Z,67
2023-04-09T06:43:18.611Z,67
2023-04-09T06:45:48.357Z,67
2023-04-09T06:48:18.681Z,67
2023-04-09T06:50:49.389Z,68
2023-04-09T06:53:22.420Z,67
2023-04-09T06:55:56.128Z,68
2023-04-09T06:58:24.952Z,68
2023-04-09T07:00:56.356Z,68
2023-04-09T07:03:28.297Z,67
2023-04-09T07:06:01.974Z,67
2023-04-09T07:08:32.606Z,67
2023-04-09T07:11:04.374Z,68
2023-04-09T07:13:37.143Z,68
2023-04-09T07:16:08.105Z,68
2023-04-09T07:18:41.865Z,69
2023-04-09T07:21:13.421Z,69
2023-04-09T07:23:48.331Z,68
2023-04-09T07:26:18.701Z,67
2023-04-09T07:28:49.785Z,67
2023-04-09T07:31:20.429Z,67
2023-04-09T07:33:51.604Z,67
2023-04-09T07:36:22.404Z,67
2023-04-09T07:38:53.113Z,68
2023-04-09T07:41:23.595Z,67
2023-04-09T07:43:54.139Z,67
2023-04-09T07:46:24.430Z,67
2023-04-09T07:48:55.870Z,67
2023-04-09T07:51:26.659Z,67
2023-04-09T07:53:58.672Z,66
2023-04-09T07:56:32.583Z,66
2023-04-09T07:59:01.898Z,65
2023-04-09T08:01:32.798Z,65
2023-04-09T08:04:03.696Z,65
2023-04-09T08:06:34.461Z,64
2023-04-09T08:09:06.024Z,65
2023-04-09T08:11:37.965Z,64
2023-04-09T08:14:09.137Z,64
2023-04-09T08:16:39.583Z,64
2023-04-09T08:19:10.251Z,64
2023-04-09T08:21:41.991Z,64
2023-04-09T08:26:43.030Z,63
2023-04-09T08:29:13.925Z,63
2023-04-09T08:34:17.644Z,63
2023-04-09T08:36:54.483Z,63
2023-04-09T08:39:24.528Z,63
2023-04-09T08:41:56.565Z,63
2023-04-09T08:44:26.890Z,62
2023-04-09T08:46:59.154Z,62
2023-04-09T08:49:30.163Z,62
2023-04-09T08:52:02.372Z,62
2023-04-09T08:54:32.429Z,61
2023-04-09T08:57:03.296Z,62
2023-04-09T08:59:37.989Z,61
2023-04-09T09:02:09.319Z,61
2023-04-09T09:04:40.451Z,61
2023-04-09T09:07:12.850Z,61
2023-04-09T09:09:45.889Z,61
2023-04-09T09:12:17.881Z,60
2023-04-09T09:14:48.967Z,59
2023-04-09T09:17:23.582Z,58
2023-04-09T09:19:55.479Z,58
2023-04-09T09:22:27.293Z,57
2023-04-09T09:24:58.444Z,57
2023-04-09T09:27:29.450Z,57
2023-04-09T09:30:04.148Z,56
2023-04-09T09:32:37.285Z,55
2023-04-09T09:35:07.698Z,56
2023-04-09T09:37:38.083Z,56
2023-04-09T09:40:07.901Z,56
2023-04-09T09:42:38.578Z,55
2023-04-09T09:45:09.614Z,54
2023-04-09T09:47:39.680Z,56
2023-04-09T09:50:10.934Z,56
2023-04-09T09:52:41.626Z,56
2023-04-09T09:55:11.814Z,56
2023-04-09T09:57:42.322Z,55
2023-04-09T10:00:13.636Z,55
2023-04-09T10:02:45.960Z,55
2023-04-09T10:05:16.716Z,55
2023-04-09T10:07:48.615Z,54
2023-04-09T10:10:19.060Z,55
2023-04-09T10:12:53.565Z,55
2023-04-09T10:15:26.007Z,55
2023-04-09T10:17:57.379Z,56
2023-04-09T10:20:26.414Z,54
2023-04-09T10:22:57.081Z,54
2023-04-09T10:25:27.670Z,53
2023-04-09T10:27:56.940Z,53
2023-04-09T10:30:30.158Z,54
2023-04-09T10:33:03.084Z,53
2023-04-09T10:35:33.893Z,53
2023-04-09T10:38:04.897Z,53
2023-04-09T10:40:35.397Z,53
2023-04-09T10:43:06.257Z,53
2023-04-09T10:45:36.902Z,52
2023-04-09T10:48:08.340Z,52
2023-04-09T10:50:40.618Z,52
2023-04-09T10:53:11.001Z,51
2023-04-09T10:55:42.679Z,53
2023-04-09T10:58:14.907Z,53
2023-04-09T11:00:45.671Z,52
2023-04-09T11:03:20.812Z,52
2023-04-09T11:05:57.758Z,52
2023-04-09T11:08:29.128Z,52
2023-04-09T11:10:59.968Z,52
2023-04-09T11:13:32.656Z,53
2023-04-09T11:16:02.485Z,53
2023-04-09T11:18:34.067Z,53
2023-04-09T11:21:05.640Z,53
2023-04-09T11:23:36.278Z,53
2023-04-09T11:26:07.209Z,54
2023-04-09T11:28:39.454Z,53
2023-04-09T11:31:10.746Z,53
2023-04-09T11:33:41.192Z,54
2023-04-09T11:36:13.314Z,54
2023-04-09T11:38:44.391Z,54
2023-04-09T11:41:14.777Z,54
2023-04-09T11:43:45.257Z,54
2023-04-09T11:46:15.701Z,53
2023-04-09T11:48:46.568Z,54
2023-04-09T11:51:16.630Z,54
2023-04-09T11:53:47.121Z,54
2023-04-09T11:56:17.836Z,54
2023-04-09T11:58:48.250Z,53
2023-04-09T12:01:18.570Z,54
2023-04-09T12:03:48.961Z,55
2023-04-09T12:06:19.394Z,53
2023-04-09T12:08:49.654Z,53
2023-04-09T12:11:21.023Z,53
2023-04-09T12:13:51.398Z,52
2023-04-09T12:16:21.980Z,53
2023-04-09T12:18:53.562Z,52
2023-04-09T12:21:26.096Z,51
2023-04-09T12:23:56.563Z,52
2023-04-09T12:26:27.280Z,52
2023-04-09T12:28:57.702Z,52
2023-04-09T12:31:30.882Z,52
2023-04-09T12:34:03.658Z,53
2023-04-09T12:36:34.251Z,55
2023-04-09T12:39:04.664Z,55
2023-04-09T12:41:41.100Z,55
2023-04-09T12:44:11.431Z,55
2023-04-09T12:46:41.803Z,55
2023-04-09T12:49:12.445Z,55
2023-04-09T12:51:42.877Z,55
2023-04-09T12:54:13.573Z,55
2023-04-09T12:56:44.266Z,55
2023-04-09T12:59:14.942Z,55
2023-04-09T13:01:45.669Z,55
2023-04-09T13:04:17.645Z,55
2023-04-09T13:06:49.267Z,56
2023-04-09T13:09:21.008Z,56
2023-04-09T13:11:52.950Z,56
2023-04-09T13:14:22.938Z,56
2023-04-09T13:16:55.896Z,56
2023-04-09T13:19:28.295Z,56
2023-04-09T13:21:59.005Z,56
2023-04-09T13:24:29.972Z,56
2023-04-09T13:27:01.007Z,56
2023-04-09T13:29:32.617Z,56
2023-04-09T13:32:03.286Z,57
2023-04-09T13:34:36.190Z,56
2023-04-09T13:37:06.914Z,55
2023-04-09T13:39:37.668Z,54
2023-04-09T13:42:13.468Z,55
2023-04-09T13:44:39.184Z,55
2023-04-09T13:47:10.800Z,54
2023-04-09T13:49:40.966Z,54
2023-04-09T13:52:11.463Z,55
2023-04-09T13:54:42.049Z,56
2023-04-09T13:57:12.563Z,56
2023-04-09T13:59:43.515Z,56
2023-04-09T14:02:14.072Z,56
2023-04-09T14:04:44.557Z,56
2023-04-09T14:07:14.892Z,56
2023-04-09T14:09:45.413Z,55
2023-04-09T14:12:15.901Z,55
2023-04-09T14:14:46.300Z,56
2023-04-09T14:17:16.782Z,56
2023-04-09T14:19:48.705Z,57
2023-04-09T14:22:19.146Z,56
2023-04-09T14:24:51.381Z,56
2023-04-09T14:27:24.516Z,57
2023-04-09T14:29:55.281Z,57
2023-04-09T14:32:25.722Z,56
2023-04-09T14:34:55.827Z,56
2023-04-09T14:37:27.349Z,56
2023-04-09T14:39:57.656Z,56
2023-04-09T14:42:29.752Z,56
2023-04-09T14:45:00.588Z,56
2023-04-09T14:47:33.791Z,56
2023-04-09T14:50:04.251Z,56
2023-04-09T14:52:35.143Z,56
2023-04-09T14:55:10.564Z,56
2023-04-09T14:57:41.328Z,56
2023-04-09T15:00:12.358Z,57
2023-04-09T15:02:43.215Z,57
2023-04-09T15:05:12.416Z,57
2023-04-09T15:07:49.193Z,57
2023-04-09T15:10:29.721Z,57
2023-04-09T15:13:05.104Z,57
2023-04-09T15:15:35.858Z,57
2023-04-09T15:18:08.828Z,57
2023-04-09T15:20:41.164Z,57
2023-04-09T15:23:13.373Z,57
2023-04-09T15:25:48.744Z,57
2023-04-09T15:28:20.420Z,57
2023-04-09T15:30:50.726Z,58
2023-04-09T15:33:21.597Z,59
2023-04-09T15:35:51.978Z,59
2023-04-09T15:38:22.430Z,59
2023-04-09T15:40:52.770Z,59
2023-04-09T15:43:23.182Z,59
2023-04-09T15:45:54.644Z,59
2023-04-09T15:48:25.791Z,59
2023-04-09T15:50:56.428Z,59
2023-04-09T15:53:26.659Z,59
2023-04-09T15:55:57.655Z,60
2023-04-09T15:58:27.949Z,60
2023-04-09T16:00:59.447Z,60
2023-04-09T16:03:33.294Z,60
2023-04-09T16:06:03.673Z,60
2023-04-09T16:08:34.156Z,60
2023-04-09T16:11:05.791Z,60
2023-04-09T16:13:36.426Z,59
2023-04-09T16:16:09.904Z,59
2023-04-09T16:18:40.569Z,59
2023-04-09T16:21:11.400Z,59
2023-04-09T16:23:42.679Z,59
2023-04-09T16:26:15.248Z,59
2023-04-09T16:28:48.715Z,59
2023-04-09T16:31:19.558Z,60
2023-04-09T16:33:50.872Z,60
2023-04-09T16:36:22.604Z,60
2023-04-09T16:38:54.409Z,60
2023-04-09T16:41:25.925Z,60
2023-04-09T16:43:56.180Z,60
2023-04-09T16:46:28.787Z,60
2023-04-09T16:49:04.703Z,60
2023-04-09T16:51:35.381Z,61
2023-04-09T16:54:10.450Z,61
2023-04-09T16:56:42.003Z,61
2023-04-09T16:59:17.683Z,61
2023-04-09T17:01:52.856Z,60
2023-04-09T17:04:27.349Z,60
2023-04-09T17:06:58.605Z,60
2023-04-09T17:12:00.419Z,61
2023-04-09T17:14:35.999Z,61
2023-04-09T17:17:07.112Z,61
2023-04-09T17:19:38.061Z,61
2023-04-09T17:22:09.829Z,61
2023-04-09T17:24:40.440Z,61
2023-04-09T17:27:13.073Z,61
2023-04-09T17:29:45.394Z,61
2023-04-09T17:32:15.208Z,61
2023-04-09T17:34:45.773Z,61
2023-04-09T17:37:21.602Z,61
2023-04-09T17:42:24.861Z,61
2023-04-09T17:44:56.306Z,61
2023-04-09T17:47:32.698Z,62
2023-04-09T17:50:04.593Z,61
2023-04-09T17:52:40.426Z,62
2023-04-09T17:55:14.900Z,61
2023-04-09T17:57:45.288Z,61
2023-04-09T18:00:15.609Z,62
2023-04-09T18:02:47.275Z,63
2023-04-09T18:05:16.339Z,62
2023-04-09T18:07:51.749Z,63
2023-04-09T18:10:26.654Z,63
2023-04-09T18:12:55.433Z,63
2023-04-09T18:15:25.885Z,63
2023-04-09T18:17:57.440Z,63
2023-04-09T18:20:27.896Z,63
2023-04-09T18:23:00.884Z,63
2023-04-09T18:25:32.548Z,63
2023-04-09T18:28:02.635Z,63
2023-04-09T18:30:33.222Z,63
2023-04-09T18:33:04.997Z,64
2023-04-09T18:35:39.080Z,64
2023-04-09T18:38:11.690Z,64
2023-04-09T18:40:50.166Z,64
2023-04-09T18:43:21.753Z,64
2023-04-09T18:45:52.266Z,64
2023-04-09T18:48:22.630Z,64
2023-04-09T18:50:58.873Z,65
2023-04-09T18:53:30.589Z,65
2023-04-09T18:56:08.180Z,65
2023-04-09T18:58:40.789Z,65
2023-04-09T19:01:13.064Z,65
2023-04-09T19:03:46.098Z,65
2023-04-09T19:06:16.531Z,65
2023-04-09T19:08:46.817Z,65
2023-04-09T19:11:19.258Z,65
2023-04-09T19:13:50.194Z,65
2023-04-09T19:16:20.728Z,65
2023-04-09T19:18:51.862Z,66
2023-04-09T19:21:23.230Z,66
2023-04-09T19:23:56.359Z,66
2023-04-09T19:26:29.930Z,66
2023-04-09T19:29:05.945Z,66
2023-04-09T19:31:38.483Z,67
2023-04-09T19:34:11.214Z,67
2023-04-09T19:36:44.164Z,67
2023-04-09T19:39:14.904Z,67
2023-04-09T19:41:50.409Z,66
2023-04-09T19:44:23.543Z,66
2023-04-09T19:46:54.083Z,66
2023-04-09T19:49:24.334Z,66
2023-04-09T19:51:56.084Z,67
2023-04-09T19:54:35.894Z,67
2023-04-09T19:57:07.012Z,67
2023-04-09T19:59:35.830Z,67
2023-04-09T20:02:06.694Z,67
2023-04-09T20:04:38.117Z,67
2023-04-09T20:07:08.116Z,67
2023-04-09T20:09:38.821Z,67
2023-04-09T20:12:12.001Z,68
2023-04-09T20:14:44.862Z,68
2023-04-09T20:17:18.047Z,68
2023-04-09T20:19:53.746Z,67
2023-04-09T20:22:24.172Z,68
2023-04-09T20:24:54.607Z,68
2023-04-09T20:27:26.053Z,69
2023-04-09T20:29:58.543Z,68
2023-04-09T20:32:32.004Z,69
2023-04-09T20:35:02.358Z,69
2023-04-09T20:37:34.818Z,68
2023-04-09T20:40:05.504Z,68
2023-04-09T20:42:35.934Z,68
2023-04-09T20:45:08.760Z,68
2023-04-09T20:47:42.285Z,69
2023-04-09T20:50:13.725Z,69
2023-04-09T20:52:45.066Z,68
2023-04-09T20:55:17.465Z,68
2023-04-09T20:57:49.582Z,68
2023-04-09T21:00:20.026Z,68
2023-04-09T21:02:48.899Z,69
2023-04-09T21:05:23.759Z,68
2023-04-09T21:08:00.320Z,70
2023-04-09T21:10:31.342Z,69
2023-04-09T21:13:10.105Z,69
2023-04-09T21:15:47.337Z,69
2023-04-09T21:18:17.642Z,69
2023-04-09T21:20:48.953Z,68
2023-04-09T21:23:21.378Z,68
2023-04-09T21:25:51.566Z,68
2023-04-09T21:28:25.504Z,68
2023-04-09T21:30:57.782Z,68
2023-04-09T21:33:30.096Z,68
2023-04-09T21:35:59.374Z,69
2023-04-09T21:38:42.204Z,69
2023-04-09T21:41:14.706Z,69
2023-04-09T21:43:45.473Z,69
2023-04-09T21:46:20.135Z,69
2023-04-09T21:48:56.374Z,69
2023-04-09T21:51:33.733Z,70
2023-04-09T21:54:04.618Z,70
2023-04-09T21:56:35.934Z,70
2023-04-09T21:59:10.064Z,70
2023-04-09T22:01:41.070Z,70
2023-04-09T22:04:17.003Z,70
2023-04-09T22:06:48.435Z,70
2023-04-09T22:09:17.404Z,71
2023-04-09T22:11:53.871Z,71
2023-04-09T22:14:25.655Z,71
2023-04-09T22:16:56.277Z,72
2023-04-09T22:19:27.681Z,71
2023-04-09T22:21:58.240Z,71
2023-04-09T22:24:28.769Z,72
2023-04-09T22:26:59.294Z,72
2023-04-09T22:29:31.694Z,72
2023-04-09T22:32:02.637Z,72
2023-04-09T22:34:32.185Z,73
2023-04-09T22:37:02.774Z,73
2023-04-09T22:39:33.231Z,73
2023-04-09T22:42:02.549Z,73
2023-04-09T22:44:33.484Z,73
2023-04-09T22:47:03.980Z,73
2023-04-09T22:49:32.881Z,73
2023-04-09T22:52:02.559Z,73
2023-04-09T22:54:33.229Z,73
2023-04-09T22:57:04.018Z,73
2023-04-09T23:02:07.025Z,74
2023-04-09T23:04:37.827Z,74
2023-04-09T23:07:08.113Z,73
2023-04-09T23:09:38.865Z,74
2023-04-09T23:12:15.062Z,74
2023-04-09T23:14:47.590Z,74
2023-04-09T23:17:19.698Z,74
2023-04-09T23:19:50.688Z,74
2023-04-09T23:22:21.385Z,73
2023-04-09T23:24:51.925Z,73
2023-04-09T23:27:22.643Z,74
2023-04-09T23:29:55.386Z,74
2023-04-09T23:32:31.550Z,74
2023-04-09T23:35:02.718Z,75
2023-04-09T23:37:35.579Z,75
2023-04-09T23:40:06.268Z,75
2023-04-09T23:42:39.233Z,74
2023-04-09T23:45:10.023Z,73
2023-04-09T23:47:41.619Z,74
2023-04-09T23:50:13.210Z,74
2023-04-09T23:52:43.724Z,74
2023-04-09T23:55:14.443Z,74
2023-04-09T23:57:45.493Z,74
